Time;durP1;ratioP1;P1;durP2;ratioP2;P2;SDS_P1;SDS_P2;PMS_P1;PMS_P2;Temp;Humidity;BMP_temperature;BMP_pressure;BME280_temperature;BME280_humidity;BME280_pressure;Samples;Min_cycle;Max_cycle;Signal;HPM_P1;HPM_P2
2023/12/23 00:01:54;;;;;;;88.30;84.00;;;;;;;11.30;68.50;100939.53;5020176;28;20038;-67
2023/12/23 00:04:19;;;;;;;90.72;86.65;;;;;;;11.29;68.62;100937.06;5021414;28;20449;-68
2023/12/23 00:06:44;;;;;;;90.97;86.40;;;;;;;11.26;68.47;100947.31;5015477;28;20121;-68
2023/12/23 00:09:10;;;;;;;89.50;85.15;;;;;;;11.24;68.79;100948.63;5031722;28;20038;-68
2023/12/23 00:11:35;;;;;;;88.72;84.72;;;;;;;11.24;68.64;100944.03;5012968;28;20104;-68
2023/12/23 00:14:01;;;;;;;87.68;83.78;;;;;;;11.26;68.56;100950.03;5021280;28;20034;-68
2023/12/23 00:16:28;;;;;;;91.15;87.05;;;;;;;11.25;68.55;100942.97;5022963;28;20588;-68
2023/12/23 00:18:53;;;;;;;91.10;86.78;;;;;;;11.25;68.66;100937.53;5020432;28;20053;-69
2023/12/23 00:21:19;;;;;;;89.20;85.25;;;;;;;11.26;68.78;100938.34;5012039;28;20026;-70
2023/12/23 00:23:44;;;;;;;90.90;86.97;;;;;;;11.27;68.70;100943.53;5019921;28;20486;-68
2023/12/23 00:26:09;;;;;;;88.13;84.13;;;;;;;11.25;68.41;100940.25;5024112;28;20042;-68
2023/12/23 00:28:35;;;;;;;91.10;86.90;;;;;;;11.25;68.46;100951.06;5024792;28;20091;-66
2023/12/23 00:31:00;;;;;;;86.50;82.32;;;;;;;11.26;68.40;100952.72;5012778;28;20034;-67
2023/12/23 00:33:26;;;;;;;95.10;90.70;;;;;;;11.28;68.25;100938.94;5010718;28;20054;-68
2023/12/23 00:35:52;;;;;;;89.53;85.65;;;;;;;11.29;68.42;100947.88;5012060;28;20417;-69
2023/12/23 00:38:17;;;;;;;88.30;84.40;;;;;;;11.26;68.48;100950.03;5027334;28;20048;-67
2023/12/23 00:40:43;;;;;;;89.80;85.65;;;;;;;11.26;68.42;100952.72;5021527;28;20053;-67
2023/12/23 00:43:08;;;;;;;93.72;88.45;;;;;;;11.24;68.57;100954.03;5027186;28;20037;-67
2023/12/23 00:45:33;;;;;;;86.90;83.00;;;;;;;11.22;68.52;100946.16;5028734;28;20078;-68
2023/12/23 00:47:59;;;;;;;89.65;85.50;;;;;;;11.23;68.56;100938.84;5022869;28;20053;-67
2023/12/23 00:50:24;;;;;;;89.75;85.82;;;;;;;11.22;68.49;100934.53;5013690;28;20034;-68
2023/12/23 00:52:50;;;;;;;89.47;85.43;;;;;;;11.23;68.49;100933.44;5016998;28;20029;-67
2023/12/23 00:55:15;;;;;;;88.95;85.10;;;;;;;11.23;68.41;100930.75;5021449;28;20081;-67
2023/12/23 00:57:40;;;;;;;92.00;87.70;;;;;;;11.24;68.31;100927.00;5018140;28;20033;-67
2023/12/23 01:00:06;;;;;;;91.80;87.40;;;;;;;11.23;68.18;100915.34;5010769;28;20038;-68
2023/12/23 01:02:32;;;;;;;91.70;87.35;;;;;;;11.22;68.46;100929.94;5011088;28;20469;-68
2023/12/23 01:04:57;;;;;;;87.82;84.03;;;;;;;11.21;68.53;100936.41;5019891;28;20038;-68
2023/12/23 01:07:23;;;;;;;87.95;83.68;;;;;;;11.22;68.36;100929.13;5022229;28;20038;-69
2023/12/23 01:09:48;;;;;;;88.90;84.60;;;;;;;11.22;68.36;100924.53;5038709;28;20069;-67
2023/12/23 01:12:13;;;;;;;92.97;88.45;;;;;;;11.25;68.23;100923.22;5031174;28;20039;-67
2023/12/23 01:14:39;;;;;;;91.97;87.65;;;;;;;11.24;68.24;100927.81;5017923;28;20044;-68
2023/12/23 01:17:04;;;;;;;87.72;83.90;;;;;;;11.23;68.18;100920.75;5029530;28;20038;-69
2023/12/23 01:19:29;;;;;;;91.60;87.20;;;;;;;11.22;68.27;100921.81;5024497;28;20040;-68
2023/12/23 01:21:55;;;;;;;89.05;85.05;;;;;;;11.24;68.21;100921.59;5027498;28;20038;-68
2023/12/23 01:24:20;;;;;;;89.07;84.97;;;;;;;11.23;68.45;100907.22;5015406;28;20056;-67
2023/12/23 01:26:46;;;;;;;87.20;83.40;;;;;;;11.22;68.66;100907.47;5017889;28;20046;-68
2023/12/23 01:29:11;;;;;;;90.22;86.00;;;;;;;11.22;68.41;100899.38;5020822;28;20040;-68
2023/12/23 01:31:36;;;;;;;87.32;83.32;;;;;;;11.23;68.54;100906.41;5027812;28;20036;-67
2023/12/23 01:34:02;;;;;;;91.22;87.10;;;;;;;11.22;68.35;100896.66;5015747;28;20042;-67
2023/12/23 01:36:27;;;;;;;87.93;83.75;;;;;;;11.22;68.44;100889.38;5017872;28;20116;-67
2023/12/23 01:38:52;;;;;;;88.07;84.22;;;;;;;11.22;68.57;100893.97;5015572;28;20076;-67
2023/12/23 01:41:18;;;;;;;86.85;82.97;;;;;;;11.24;68.65;100897.25;5027858;28;20392;-67
2023/12/23 01:43:43;;;;;;;87.50;83.55;;;;;;;11.23;68.21;100901.00;5030349;28;20064;-68
2023/12/23 01:46:09;;;;;;;88.55;84.50;;;;;;;11.21;68.57;100908.53;5027518;28;20121;-68
2023/12/23 01:48:37;;;;;;;90.28;86.15;;;;;;;11.19;68.57;100914.19;5019578;28;20048;-68
2023/12/23 01:51:03;;;;;;;89.50;85.25;;;;;;;11.19;68.64;100899.88;5021987;28;20091;-68
2023/12/23 01:53:31;;;;;;;84.40;80.68;;;;;;;11.18;68.96;100896.31;5030635;28;20469;-69
2023/12/23 01:55:57;;;;;;;87.07;83.25;;;;;;;11.17;68.80;100908.19;5020895;28;20041;-68
2023/12/23 01:58:23;;;;;;;87.43;83.38;;;;;;;11.19;68.53;100894.44;5017805;28;20038;-69
2023/12/23 02:00:49;;;;;;;88.00;83.10;;;;;;;11.18;69.08;100896.31;5016894;28;20103;-68
2023/12/23 02:03:14;;;;;;;89.15;85.22;;;;;;;11.18;68.85;100887.38;5025088;28;20042;-68
2023/12/23 02:05:39;;;;;;;91.05;86.97;;;;;;;11.17;68.90;100883.88;5014372;28;20038;-69
2023/12/23 02:08:06;;;;;;;89.18;85.18;;;;;;;11.17;68.84;100883.88;5028046;28;20052;-68
2023/12/23 02:10:32;;;;;;;87.15;82.45;;;;;;;11.18;68.93;100882.78;5023539;28;20037;-68
2023/12/23 02:13:16;;;;;;;86.22;82.10;;;;;;;11.18;68.86;100865.75;5027228;28;20037;-67
2023/12/23 02:15:46;;;;;;;88.40;84.47;;;;;;;11.16;68.94;100867.88;5030349;28;20075;-67
2023/12/23 02:18:11;;;;;;;86.82;82.63;;;;;;;11.17;68.90;100862.25;5018281;28;20495;-68
2023/12/23 02:20:37;;;;;;;92.32;87.40;;;;;;;11.15;68.91;100856.25;5015300;28;20045;-68
2023/12/23 02:23:02;;;;;;;89.82;85.55;;;;;;;11.15;68.98;100866.25;5021970;28;20460;-68
2023/12/23 02:25:28;;;;;;;86.10;82.28;;;;;;;11.16;68.68;100863.31;5025399;28;20065;-67
2023/12/23 02:27:58;;;;;;;88.47;84.45;;;;;;;11.17;69.06;100874.94;5025868;28;20467;-68
2023/12/23 02:30:25;;;;;;;86.88;83.00;;;;;;;11.19;68.73;100880.94;5017338;28;20029;-69
2023/12/23 02:32:51;;;;;;;89.50;85.35;;;;;;;11.19;68.98;100875.53;5023048;28;20449;-68
2023/12/23 02:35:17;;;;;;;86.75;82.93;;;;;;;11.20;68.59;100872.56;5016146;28;20041;-69
2023/12/23 02:37:42;;;;;;;89.07;84.80;;;;;;;11.18;68.64;100882.78;5037886;28;20402;-68
2023/12/23 02:40:08;;;;;;;87.95;83.97;;;;;;;11.18;68.75;100876.56;5020957;28;20054;-67
2023/12/23 02:42:33;;;;;;;89.57;85.22;;;;;;;11.17;68.87;100862.25;5028489;28;20117;-68
2023/12/23 02:44:59;;;;;;;89.82;85.53;;;;;;;11.19;68.67;100856.59;5022604;28;20386;-69
2023/12/23 02:47:24;;;;;;;92.13;87.65;;;;;;;11.17;68.68;100847.91;5033016;28;20211;-68
2023/12/23 02:49:49;;;;;;;90.10;85.80;;;;;;;11.15;68.76;100840.03;5032702;28;20037;-68
2023/12/23 02:52:15;;;;;;;87.30;83.40;;;;;;;11.14;68.73;100859.22;5013887;28;20078;-67
2023/12/23 02:54:40;;;;;;;88.30;84.35;;;;;;;11.13;68.77;100849.44;5013027;28;20036;-68
2023/12/23 02:57:06;;;;;;;84.88;80.97;;;;;;;11.12;68.65;100837.00;5025629;28;20095;-68
2023/12/23 02:59:31;;;;;;;90.65;86.35;;;;;;;11.12;68.68;100839.72;5022445;28;20471;-68
2023/12/23 03:01:56;;;;;;;86.93;83.13;;;;;;;11.12;68.41;100834.31;5024026;28;20121;-68
2023/12/23 03:04:22;;;;;;;83.18;79.28;;;;;;;11.12;68.22;100832.41;5025518;28;20106;-69
2023/12/23 03:06:47;;;;;;;88.85;84.85;;;;;;;11.09;68.64;100830.22;5014581;28;20117;-70
2023/12/23 03:09:13;;;;;;;87.63;83.72;;;;;;;11.08;68.73;100833.94;5028233;28;20049;-68
2023/12/23 03:11:38;;;;;;;88.85;84.90;;;;;;;11.10;68.46;100839.13;5018627;28;20069;-68
2023/12/23 03:14:04;;;;;;;86.50;82.50;;;;;;;11.10;68.42;100829.13;5018475;28;20038;-70
2023/12/23 03:16:34;;;;;;;87.65;83.47;;;;;;;11.10;68.63;100831.00;5013153;28;20481;-68
2023/12/23 03:19:03;;;;;;;84.88;80.68;;;;;;;11.09;68.56;100830.22;5030077;28;20457;-68
2023/12/23 03:21:31;;;;;;;83.97;79.88;;;;;;;11.07;68.47;100837.72;5027684;28;20064;-68
2023/12/23 03:23:56;;;;;;;94.13;89.82;;;;;;;11.08;68.41;100850.16;5015069;28;20061;-68
2023/12/23 03:26:22;;;;;;;88.32;84.47;;;;;;;11.09;68.37;100843.72;5013698;28;20131;-67
2023/12/23 03:28:47;;;;;;;90.25;86.15;;;;;;;11.09;68.63;100851.84;5013970;28;20034;-68
2023/12/23 03:31:13;;;;;;;87.47;83.07;;;;;;;11.08;68.79;100833.94;5028829;28;20080;-68
2023/12/23 03:33:41;;;;;;;86.95;82.65;;;;;;;11.07;68.45;100818.81;5025590;28;20053;-68
2023/12/23 03:36:07;;;;;;;92.65;88.35;;;;;;;11.07;68.46;100808.00;5030021;28;20042;-68
2023/12/23 03:38:32;;;;;;;86.32;82.45;;;;;;;11.07;68.41;100821.50;5020551;28;20387;-69
2023/12/23 03:40:58;;;;;;;88.20;84.10;;;;;;;11.07;68.81;100818.81;5016689;28;20490;-68
2023/12/23 03:43:23;;;;;;;90.20;86.22;;;;;;;11.07;68.55;100824.22;5039579;28;20042;-67
2023/12/23 03:45:49;;;;;;;91.28;86.63;;;;;;;11.08;68.14;100827.72;5011573;28;20057;-66
2023/12/23 03:48:14;;;;;;;86.18;81.80;;;;;;;11.09;68.47;100823.94;5012995;28;20045;-68
2023/12/23 03:50:40;;;;;;;82.20;77.65;;;;;;;11.07;68.28;100818.00;5017065;28;20048;-68
2023/12/23 03:53:05;;;;;;;86.20;81.95;;;;;;;11.05;68.16;100813.63;5028731;28;20060;-70
2023/12/23 03:55:32;;;;;;;85.88;81.78;;;;;;;11.05;68.39;100807.41;5027346;28;20114;-67
2023/12/23 03:58:02;;;;;;;83.38;79.47;;;;;;;11.04;68.45;100822.81;5011453;28;20070;-68
2023/12/23 04:00:28;;;;;;;85.00;80.75;;;;;;;11.03;68.48;100806.84;5029089;28;20028;-70
2023/12/23 04:02:54;;;;;;;85.47;81.57;;;;;;;11.02;68.50;100808.72;5019011;28;20080;-68
2023/12/23 04:05:19;;;;;;;84.20;80.20;;;;;;;11.02;68.60;100810.63;5028676;28;20091;-68
2023/12/23 04:07:48;;;;;;;84.38;80.22;;;;;;;11.01;68.49;100809.81;5028418;28;20469;-68
2023/12/23 04:10:14;;;;;;;81.70;77.88;;;;;;;11.03;68.29;100801.44;5027323;28;20041;-68
2023/12/23 04:12:40;;;;;;;85.38;81.53;;;;;;;11.03;68.31;100809.53;5021510;28;20063;-68
2023/12/23 04:15:06;;;;;;;86.05;81.47;;;;;;;11.04;68.64;100808.50;5023813;28;20379;-70
2023/12/23 04:17:32;;;;;;;81.32;77.50;;;;;;;11.03;68.37;100807.66;5021670;28;20379;-70
2023/12/23 04:19:57;;;;;;;83.28;79.10;;;;;;;11.04;68.37;100794.97;5026792;28;20041;-67
2023/12/23 04:22:22;;;;;;;81.07;77.47;;;;;;;11.07;68.30;100804.47;5022471;28;20465;-69
2023/12/23 04:24:48;;;;;;;78.93;75.15;;;;;;;11.07;68.30;100788.25;5012890;28;20041;-68
2023/12/23 04:27:13;;;;;;;81.30;77.72;;;;;;;11.07;68.33;100799.88;5015826;28;20048;-68
2023/12/23 04:29:38;;;;;;;83.55;79.50;;;;;;;11.07;68.44;100783.66;5022508;28;20394;-67
2023/12/23 04:32:04;;;;;;;85.85;81.82;;;;;;;11.09;68.20;100786.09;5011411;28;20160;-71
2023/12/23 04:34:29;;;;;;;86.43;82.25;;;;;;;11.08;68.41;100769.06;5028674;28;20037;-70
2023/12/23 04:36:55;;;;;;;89.60;85.10;;;;;;;11.09;68.27;100772.59;5014860;28;20133;-69
2023/12/23 04:39:20;;;;;;;83.05;79.43;;;;;;;11.08;68.11;100763.66;5015299;28;20367;-67
2023/12/23 04:41:48;;;;;;;85.70;81.53;;;;;;;11.08;68.22;100766.38;5016773;28;20079;-68
2023/12/23 04:44:14;;;;;;;80.53;76.93;;;;;;;11.06;68.59;100765.78;5026348;28;20033;-69
2023/12/23 04:46:41;;;;;;;81.95;77.90;;;;;;;11.06;68.45;100768.50;5012185;28;20037;-68
2023/12/23 04:49:07;;;;;;;82.68;79.05;;;;;;;11.07;67.96;100750.41;5010399;28;20164;-69
2023/12/23 04:51:33;;;;;;;80.72;76.25;;;;;;;11.05;68.16;100772.28;5020433;28;20124;-68
2023/12/23 04:53:58;;;;;;;85.55;81.20;;;;;;;11.03;68.25;100763.59;5014964;28;20492;-69
2023/12/23 04:56:23;;;;;;;82.13;78.18;;;;;;;11.04;68.01;100751.72;5028232;28;20059;-67
2023/12/23 04:58:49;;;;;;;85.20;81.28;;;;;;;11.03;68.42;100748.19;5016140;28;20434;-68
2023/12/23 05:01:14;;;;;;;86.22;82.47;;;;;;;11.04;68.46;100749.84;5015482;28;20045;-69
2023/12/23 05:03:40;;;;;;;83.68;79.72;;;;;;;11.04;68.47;100757.13;5015531;28;20034;-69
2023/12/23 05:06:06;;;;;;;83.38;79.47;;;;;;;11.07;68.38;100780.16;5028233;28;20397;-69
2023/12/23 05:08:32;;;;;;;85.28;81.43;;;;;;;11.07;68.34;100756.63;5029002;28;20052;-67
2023/12/23 05:10:58;;;;;;;89.55;85.30;;;;;;;11.07;68.31;100753.94;5020878;28;20385;-66
2023/12/23 05:13:24;;;;;;;84.68;80.50;;;;;;;11.05;68.24;100761.47;5017412;28;20034;-68
2023/12/23 05:15:49;;;;;;;86.72;82.68;;;;;;;11.03;68.45;100764.41;5022357;28;20083;-67
2023/12/23 05:18:15;;;;;;;81.85;77.72;;;;;;;11.02;68.41;100760.06;5028634;28;20034;-67
2023/12/23 05:20:40;;;;;;;84.80;81.00;;;;;;;11.00;68.61;100756.78;5015606;28;20034;-68
2023/12/23 05:23:06;;;;;;;84.68;80.78;;;;;;;11.00;68.55;100759.50;5019380;28;20034;-68
2023/12/23 05:25:31;;;;;;;84.07;80.38;;;;;;;11.02;68.33;100762.78;5023274;28;20434;-69
2023/12/23 05:27:56;;;;;;;84.57;80.78;;;;;;;11.01;68.57;100753.03;5020373;28;20478;-68
2023/12/23 05:30:22;;;;;;;81.70;77.80;;;;;;;11.03;68.34;100733.84;5017349;28;20092;-70
2023/12/23 05:32:47;;;;;;;84.47;80.20;;;;;;;11.03;68.09;100758.19;5021197;28;20540;-68
2023/12/23 05:35:12;;;;;;;83.63;79.90;;;;;;;11.03;68.34;100739.25;5016209;28;20498;-68
2023/12/23 05:37:38;;;;;;;86.90;82.53;;;;;;;11.03;68.34;100741.97;5029240;28;20091;-67
2023/12/23 05:40:05;;;;;;;82.88;78.60;;;;;;;11.03;68.41;100740.06;5014531;28;20058;-69
2023/12/23 05:42:30;;;;;;;84.97;81.07;;;;;;;11.02;68.44;100737.63;5014735;28;20459;-67
2023/12/23 05:44:56;;;;;;;85.55;81.65;;;;;;;11.01;68.50;100736.81;5025814;28;20033;-68
2023/12/23 05:47:21;;;;;;;82.10;78.20;;;;;;;11.00;68.33;100728.94;5024831;28;20083;-67
2023/12/23 05:49:47;;;;;;;86.40;82.30;;;;;;;11.01;68.15;100752.19;5030872;28;20037;-67
2023/12/23 05:52:12;;;;;;;83.80;80.15;;;;;;;10.98;68.39;100742.69;5033763;28;20037;-68
2023/12/23 05:54:37;;;;;;;83.55;79.53;;;;;;;11.00;68.59;100761.38;5020027;28;20041;-70
2023/12/23 05:57:03;;;;;;;84.00;79.68;;;;;;;11.00;68.17;100753.28;5015400;28;20475;-68
2023/12/23 05:59:29;;;;;;;84.78;80.78;;;;;;;10.98;68.46;100763.50;5031792;28;20120;-67
2023/12/23 06:01:54;;;;;;;82.60;78.93;;;;;;;10.96;68.42;100742.16;5016749;28;20057;-68
2023/12/23 06:04:19;;;;;;;84.15;80.00;;;;;;;10.97;68.52;100740.25;5017515;28;22229;-67
2023/12/23 06:06:45;;;;;;;82.95;79.03;;;;;;;10.98;68.33;100748.09;5034462;28;20504;-70
2023/12/23 06:09:10;;;;;;;82.88;78.88;;;;;;;11.01;68.51;100749.50;5025086;28;20029;-68
2023/12/23 06:11:36;;;;;;;83.32;79.60;;;;;;;11.00;68.38;100735.16;5027159;28;20045;-68
2023/12/23 06:14:02;;;;;;;82.95;79.05;;;;;;;11.00;68.45;100732.47;5015916;28;20095;-69
2023/12/23 06:16:28;;;;;;;85.25;80.97;;;;;;;11.02;68.44;100733.03;5014001;28;20042;-68
2023/12/23 06:18:53;;;;;;;90.40;85.50;;;;;;;11.03;68.37;100725.75;5021187;28;20026;-68
2023/12/23 06:21:18;;;;;;;84.03;79.93;;;;;;;11.03;68.10;100731.97;5013820;28;20038;-67
2023/12/23 06:23:44;;;;;;;87.78;83.78;;;;;;;11.02;68.28;100726.81;5015521;28;20038;-67
2023/12/23 06:26:10;;;;;;;89.53;85.18;;;;;;;11.02;68.35;100751.97;5028335;28;20044;-68
2023/12/23 06:28:36;;;;;;;88.43;83.97;;;;;;;11.01;68.35;100733.28;5026040;28;20037;-70
2023/12/23 06:31:01;;;;;;;87.55;83.55;;;;;;;11.01;68.41;100738.69;5020422;28;20029;-68
2023/12/23 06:33:27;;;;;;;83.03;79.28;;;;;;;11.02;68.41;100733.03;5020591;28;20645;-68
2023/12/23 06:35:52;;;;;;;83.63;79.28;;;;;;;11.03;68.48;100736.56;5015801;28;20132;-68
2023/12/23 06:38:18;;;;;;;84.15;80.32;;;;;;;11.03;68.09;100733.84;5016039;28;20037;-68
2023/12/23 06:40:43;;;;;;;81.88;78.05;;;;;;;11.01;68.59;100752.19;5025582;28;20517;-68
2023/12/23 06:43:09;;;;;;;83.10;78.78;;;;;;;11.01;68.44;100735.97;5013672;28;20034;-68
2023/12/23 06:45:34;;;;;;;87.03;82.55;;;;;;;11.01;68.84;100739.53;5015456;28;20088;-67
2023/12/23 06:47:59;;;;;;;85.00;81.18;;;;;;;11.02;68.44;100740.34;5015064;28;20398;-68
2023/12/23 06:50:25;;;;;;;83.25;79.40;;;;;;;11.05;68.60;100747.94;5018988;28;20116;-68
2023/12/23 06:52:50;;;;;;;82.30;78.30;;;;;;;11.05;68.38;100732.53;5015344;28;20073;-67
2023/12/23 06:55:16;;;;;;;82.68;78.68;;;;;;;11.07;68.29;100747.72;5013606;28;20490;-68
2023/12/23 06:57:41;;;;;;;83.90;79.88;;;;;;;11.07;68.23;100751.22;5028108;28;20034;-67
2023/12/23 07:00:08;;;;;;;86.20;82.07;;;;;;;11.07;68.13;100742.31;5013021;28;20400;-68
2023/12/23 07:02:33;;;;;;;85.20;81.00;;;;;;;11.07;68.42;100748.53;5024858;28;20042;-67
2023/12/23 07:04:59;;;;;;;86.10;81.75;;;;;;;11.07;68.32;100747.72;5018116;28;20375;-68
2023/12/23 07:07:24;;;;;;;83.28;79.38;;;;;;;11.08;68.16;100747.44;5015662;28;20033;-67
2023/12/23 07:09:50;;;;;;;82.82;79.18;;;;;;;11.09;68.14;100743.69;5029296;28;20057;-67
2023/12/23 07:12:15;;;;;;;84.07;79.90;;;;;;;11.07;68.50;100743.13;5023529;28;20417;-68
2023/12/23 07:14:41;;;;;;;78.88;75.30;;;;;;;11.05;68.23;100724.44;5013546;28;20096;-68
2023/12/23 07:17:07;;;;;;;84.10;79.80;;;;;;;11.06;68.03;100722.53;5016252;28;20042;-67
2023/12/23 07:19:32;;;;;;;83.13;79.43;;;;;;;11.03;68.37;100725.75;5025361;28;20187;-67
2023/12/23 07:21:58;;;;;;;85.82;81.65;;;;;;;11.03;68.61;100736.56;5024899;28;20034;-69
2023/12/23 07:24:23;;;;;;;85.80;82.07;;;;;;;11.05;67.93;100747.94;5017678;28;20042;-70
2023/12/23 07:26:48;;;;;;;83.88;80.00;;;;;;;11.07;68.01;100742.31;5023738;28;20059;-68
2023/12/23 07:29:14;;;;;;;85.22;81.00;;;;;;;11.05;68.09;100745.25;5013144;28;20038;-68
2023/12/23 07:31:40;;;;;;;84.30;80.53;;;;;;;11.07;68.05;100751.22;5018178;28;20042;-68
2023/12/23 07:34:06;;;;;;;83.43;79.60;;;;;;;11.09;68.05;100742.84;5018701;28;20030;-67
2023/12/23 07:36:31;;;;;;;90.50;86.10;;;;;;;11.09;68.02;100754.50;5029424;28;20037;-67
2023/12/23 07:38:56;;;;;;;87.88;83.68;;;;;;;11.11;68.26;100755.06;5012943;28;20125;-70
2023/12/23 07:41:22;;;;;;;86.72;82.63;;;;;;;11.10;68.37;100753.44;5028817;28;20132;-68
2023/12/23 07:43:47;;;;;;;88.60;83.35;;;;;;;11.12;68.25;100758.59;5029917;28;20116;-69
2023/12/23 07:46:13;;;;;;;83.78;79.97;;;;;;;11.13;67.98;100758.34;5007998;28;20482;-67
2023/12/23 07:48:38;;;;;;;82.57;78.78;;;;;;;11.16;67.76;100773.25;5012820;28;20510;-67
2023/12/23 07:51:08;;;;;;;84.13;80.43;;;;;;;11.14;67.91;100753.78;5012820;28;20030;-67
2023/12/23 07:53:34;;;;;;;85.95;81.93;;;;;;;11.11;67.84;100755.06;5019418;28;20091;-68
2023/12/23 07:55:59;;;;;;;85.80;81.50;;;;;;;11.11;68.01;100748.84;5019071;28;20030;-68
2023/12/23 07:58:25;;;;;;;86.80;82.80;;;;;;;11.11;68.20;100743.44;5015599;28;20302;-68
2023/12/23 08:00:50;;;;;;;86.85;82.70;;;;;;;11.12;68.05;100754.00;5011958;28;20120;-68
2023/12/23 08:03:15;;;;;;;85.10;81.28;;;;;;;11.12;67.87;100745.91;5012647;28;20034;-68
2023/12/23 08:05:41;;;;;;;83.57;79.68;;;;;;;11.15;68.03;100750.00;5021792;28;20053;-69
2023/12/23 08:08:09;;;;;;;81.50;76.97;;;;;;;11.15;67.51;100761.63;5020913;28;20037;-69
2023/12/23 08:10:35;;;;;;;89.70;85.35;;;;;;;11.14;67.80;100756.47;5023923;28;20100;-69
2023/12/23 08:13:00;;;;;;;86.18;82.38;;;;;;;11.12;68.10;100750.50;5012561;28;20470;-68
2023/12/23 08:15:25;;;;;;;86.78;82.55;;;;;;;11.14;68.09;100768.13;5026722;28;20073;-68
2023/12/23 08:17:51;;;;;;;89.43;85.30;;;;;;;11.16;67.72;100759.72;5022118;28;20477;-68
2023/12/23 08:20:16;;;;;;;85.47;81.47;;;;;;;11.18;67.68;100760.31;5029400;28;20117;-68
2023/12/23 08:22:42;;;;;;;82.20;78.10;;;;;;;11.16;67.54;100774.09;5017378;28;20037;-69
2023/12/23 08:25:08;;;;;;;84.93;80.85;;;;;;;11.17;68.00;100773.03;5017932;28;20032;-68
2023/12/23 08:27:34;;;;;;;84.15;80.35;;;;;;;11.17;67.77;100767.63;5023213;28;20401;-68
2023/12/23 08:29:59;;;;;;;83.65;79.90;;;;;;;11.19;67.48;100778.19;5025438;28;20120;-70
2023/12/23 08:32:25;;;;;;;84.35;80.03;;;;;;;11.16;67.80;100773.25;5013288;28;20076;-68
2023/12/23 08:34:50;;;;;;;86.18;82.43;;;;;;;11.15;68.03;100775.16;5014950;28;20037;-68
2023/12/23 08:37:16;;;;;;;85.32;81.32;;;;;;;11.15;68.04;100771.63;5026166;28;20038;-68
2023/12/23 08:39:41;;;;;;;84.68;80.97;;;;;;;11.16;67.89;100787.63;5010792;28;20041;-69
2023/12/23 08:42:07;;;;;;;81.85;77.95;;;;;;;11.18;68.38;100776.53;5011775;28;20072;-68
2023/12/23 08:44:32;;;;;;;88.55;84.53;;;;;;;11.18;67.87;100787.34;5011143;28;20062;-68
2023/12/23 08:46:57;;;;;;;84.78;80.78;;;;;;;11.20;67.80;100790.63;5032575;28;20463;-68
2023/12/23 08:49:23;;;;;;;84.60;80.43;;;;;;;11.17;68.20;100781.13;5016486;28;20079;-69
2023/12/23 08:51:48;;;;;;;89.07;84.03;;;;;;;11.16;68.06;100775.97;5015648;28;20056;-68
2023/12/23 08:54:13;;;;;;;89.28;85.15;;;;;;;11.16;68.27;100790.31;5026021;28;20062;-68
2023/12/23 08:56:39;;;;;;;86.65;82.70;;;;;;;11.15;68.58;100775.16;5020143;28;20037;-68
2023/12/23 08:59:04;;;;;;;87.00;83.00;;;;;;;11.12;68.31;100772.13;5017102;28;20489;-67
2023/12/23 09:01:29;;;;;;;84.53;80.00;;;;;;;11.10;68.42;100777.75;5011940;28;20038;-70
2023/12/23 09:03:55;;;;;;;85.88;81.97;;;;;;;11.11;68.38;100781.28;5028145;28;20429;-68
2023/12/23 09:06:20;;;;;;;86.72;82.43;;;;;;;11.11;68.07;100789.38;5029192;28;20083;-68
2023/12/23 09:08:46;;;;;;;82.82;79.07;;;;;;;11.11;68.51;100770.47;5025173;28;20041;-67
2023/12/23 09:11:11;;;;;;;85.20;81.20;;;;;;;11.10;68.62;100785.88;5011247;28;20038;-68
2023/12/23 09:13:37;;;;;;;85.45;81.38;;;;;;;11.10;68.59;100785.88;5018332;28;20341;-68
2023/12/23 09:16:03;;;;;;;82.80;79.10;;;;;;;11.11;68.45;100783.97;5021373;28;20038;-67
2023/12/23 09:18:28;;;;;;;84.28;80.40;;;;;;;11.12;68.42;100802.69;5022618;28;20034;-69
2023/12/23 09:20:54;;;;;;;91.30;87.07;;;;;;;11.08;68.55;100796.09;5019048;28;20144;-67
2023/12/23 09:23:19;;;;;;;86.30;82.20;;;;;;;11.09;68.51;100821.25;5023531;28;20048;-67
2023/12/23 09:25:45;;;;;;;82.60;78.72;;;;;;;11.08;68.69;100831.25;5020454;28;20075;-68
2023/12/23 09:28:10;;;;;;;85.60;81.38;;;;;;;11.12;68.67;100807.28;5019243;28;20496;-68
2023/12/23 09:30:35;;;;;;;82.40;78.60;;;;;;;11.12;68.30;100809.97;5023136;28;20108;-68
2023/12/23 09:33:01;;;;;;;87.22;83.22;;;;;;;11.14;68.23;100814.06;5025609;28;20033;-69
2023/12/23 09:35:26;;;;;;;85.20;80.68;;;;;;;11.13;68.28;100823.22;5022224;28;20048;-67
2023/12/23 09:37:52;;;;;;;84.70;80.70;;;;;;;11.10;68.61;100815.63;5025368;28;20033;-68
2023/12/23 09:40:17;;;;;;;83.90;79.97;;;;;;;11.12;68.38;100824.31;5021758;28;20815;-68
2023/12/23 09:42:43;;;;;;;85.68;81.57;;;;;;;11.15;68.31;100820.28;5025576;28;20033;-67
2023/12/23 09:45:13;;;;;;;85.82;81.82;;;;;;;11.17;68.54;100821.69;5028289;28;20037;-68
2023/12/23 09:47:38;;;;;;;85.72;81.78;;;;;;;11.19;68.29;100821.44;5029987;28;20060;-67
2023/12/23 09:50:04;;;;;;;83.15;78.95;;;;;;;11.19;68.40;100827.69;5027959;28;20037;-68
2023/12/23 09:52:30;;;;;;;86.32;82.32;;;;;;;11.20;68.08;100839.31;5020394;28;20061;-67
2023/12/23 09:54:58;;;;;;;84.40;80.68;;;;;;;11.21;68.18;100820.16;5024424;28;20033;-67
2023/12/23 09:57:24;;;;;;;87.80;83.63;;;;;;;11.23;68.12;100815.28;5026891;28;20045;-70
2023/12/23 09:59:52;;;;;;;82.82;78.95;;;;;;;11.23;68.34;100822.59;5024973;28;20109;-67
2023/12/23 10:02:18;;;;;;;88.32;84.20;;;;;;;11.20;68.43;100823.91;5023510;28;20043;-70
2023/12/23 10:04:43;;;;;;;85.95;82.15;;;;;;;11.21;68.35;100836.38;5026025;28;20037;-67
2023/12/23 10:07:09;;;;;;;84.35;80.53;;;;;;;11.21;68.28;100838.22;5024331;28;20432;-68
2023/12/23 10:09:34;;;;;;;88.13;83.82;;;;;;;11.21;68.10;100841.78;5008768;28;20034;-68
2023/12/23 10:12:02;;;;;;;85.28;81.38;;;;;;;11.22;68.41;100854.22;5025129;28;20088;-67
2023/12/23 10:14:27;;;;;;;87.88;83.53;;;;;;;11.24;68.12;100856.69;5024270;28;20370;-71
2023/12/23 10:16:53;;;;;;;87.35;83.28;;;;;;;11.26;67.85;100843.72;5025778;28;20040;-68
2023/12/23 10:19:20;;;;;;;87.43;83.50;;;;;;;11.27;67.89;100848.91;5022588;28;20037;-69
2023/12/23 10:21:45;;;;;;;85.32;81.30;;;;;;;11.30;67.60;100841.38;5027088;28;20025;-68
2023/12/23 10:24:11;;;;;;;84.28;79.97;;;;;;;11.29;68.24;100829.72;5029888;28;20488;-67
2023/12/23 10:26:37;;;;;;;87.00;82.53;;;;;;;11.30;67.58;100825.13;5027735;28;20065;-68
2023/12/23 10:29:04;;;;;;;84.85;81.05;;;;;;;11.27;67.73;100824.56;5027833;28;20037;-68
2023/12/23 10:31:33;;;;;;;87.78;83.32;;;;;;;11.27;68.10;100821.84;5028475;28;20029;-68
2023/12/23 10:34:11;;;;;;;87.95;82.65;;;;;;;11.29;67.56;100824.31;5027858;28;20038;-68
2023/12/23 10:36:42;;;;;;;86.68;82.53;;;;;;;11.32;67.98;100817.59;5026374;28;20037;-67
2023/12/23 10:39:22;;;;;;;84.97;81.05;;;;;;;11.32;67.92;100825.72;5026915;28;20042;-66
2023/12/23 10:41:55;;;;;;;84.40;80.65;;;;;;;11.33;67.95;100835.47;5025896;28;20076;-69
2023/12/23 10:44:22;;;;;;;86.25;82.05;;;;;;;11.36;67.80;100840.38;5024277;28;20172;-68
2023/12/23 10:46:50;;;;;;;86.63;82.57;;;;;;;11.37;67.97;100828.50;5027863;28;20124;-67
2023/12/23 10:49:17;;;;;;;91.53;87.30;;;;;;;11.38;67.62;100846.34;5028720;28;20433;-69
2023/12/23 10:51:43;;;;;;;86.60;82.75;;;;;;;11.38;67.57;100828.25;5027785;28;20065;-68
2023/12/23 10:54:10;;;;;;;87.40;83.30;;;;;;;11.38;67.78;100840.94;5027166;28;20116;-67
2023/12/23 10:56:37;;;;;;;86.32;82.45;;;;;;;11.39;67.95;100847.97;5023062;28;20038;-69
2023/12/23 10:59:03;;;;;;;88.85;84.78;;;;;;;11.38;67.80;100830.94;5025834;28;20052;-68
2023/12/23 11:01:31;;;;;;;90.30;86.13;;;;;;;11.40;68.00;100822.59;5026268;28;20036;-68
2023/12/23 11:04:00;;;;;;;88.47;84.30;;;;;;;11.42;67.67;100823.19;5025110;28;20768;-67